createdAt,value
2022-10-01T00:02:00.987Z,96383.06
2022-10-01T00:04:28.822Z,96372.81
2022-10-01T00:06:59.202Z,96378.38
2022-10-01T00:09:27.298Z,96379.78
2022-10-01T00:11:54.981Z,96379.13
2022-10-01T00:14:22.774Z,96371.66
2022-10-01T00:16:52.019Z,96380.25
2022-10-01T00:19:19.675Z,96365.25
2022-10-01T00:21:47.341Z,96367.16
2022-10-01T00:24:15.144Z,96362.13
2022-10-01T00:26:45.423Z,96359.09
2022-10-01T00:29:15.447Z,96358.22
2022-10-01T00:31:43.663Z,96358.78
2022-10-01T00:35:05.653Z,96345.47
2022-10-01T00:37:35.170Z,96365.53
2022-10-01T00:40:03.180Z,96358.38
2022-10-01T00:42:30.976Z,96357.25
2022-10-01T00:44:58.934Z,96362.09
2022-10-01T00:47:32.527Z,96353.59
2022-10-01T00:50:07.367Z,96358.50
2022-10-01T00:52:39.224Z,96363.44
2022-10-01T00:55:12.846Z,96370.03
2022-10-01T00:57:42.057Z,96366.75
2022-10-01T01:00:12.214Z,96363.16
2022-10-01T01:02:40.765Z,96359.81
2022-10-01T01:05:13.647Z,96354.63
2022-10-01T01:07:45.391Z,96362.56
2022-10-01T01:10:15.138Z,96357.28
2022-10-01T01:12:56.129Z,96362.41
2022-10-01T01:15:31.692Z,96389.94
2022-10-01T01:18:09.293Z,96359.81
2022-10-01T01:21:00.244Z,96332.56
2022-10-01T01:23:55.253Z,96361.47
2022-10-01T01:26:33.911Z,96365.41
2022-10-01T01:29:08.448Z,96341.34
2022-10-01T01:31:41.329Z,96342.00
2022-10-01T01:34:12.947Z,96352.59
2022-10-01T01:36:46.120Z,96359.38
2022-10-01T01:39:18.048Z,96363.88
2022-10-01T01:41:50.975Z,96372.06
2022-10-01T01:44:25.646Z,96381.53
2022-10-01T01:46:56.818Z,96371.06
2022-10-01T01:49:25.492Z,96377.84
2022-10-01T01:51:58.037Z,96376.91
2022-10-01T01:54:30.302Z,96378.41
2022-10-01T01:56:59.467Z,96369.75
2022-10-01T01:59:29.363Z,96363.41
2022-10-01T02:01:58.905Z,96367.06
2022-10-01T02:04:31.575Z,96357.59
2022-10-01T02:07:29.058Z,96359.53
2022-10-01T02:10:10.047Z,96342.59
2022-10-01T02:12:49.954Z,96345.50
2022-10-01T02:15:27.506Z,96350.22
2022-10-01T02:18:00.528Z,96348.81
2022-10-01T02:20:32.154Z,96343.63
2022-10-01T02:23:03.622Z,96329.25
2022-10-01T02:25:38.635Z,96331.28
2022-10-01T02:28:10.307Z,96324.81
2022-10-01T02:30:41.946Z,96333.78
2022-10-01T02:33:12.498Z,96325.84
2022-10-01T02:35:42.521Z,96322.75
2022-10-01T02:38:11.515Z,96324.38
2022-10-01T02:40:43.268Z,96328.88
2022-10-01T02:43:16.490Z,96322.41
2022-10-01T02:45:48.291Z,96322.56
2022-10-01T02:48:17.499Z,96322.44
2022-10-01T02:50:51.055Z,96322.75
2022-10-01T02:53:23.162Z,96317.50
2022-10-01T02:55:51.701Z,96321.41
2022-10-01T02:58:19.433Z,96317.88
2022-10-01T03:00:48.484Z,96316.97
2022-10-01T03:03:16.200Z,96311.28
2022-10-01T03:05:44.025Z,96312.16
2022-10-01T03:08:11.759Z,96312.47
2022-10-01T03:10:42.446Z,96308.34
2022-10-01T03:13:13.713Z,96306.84
2022-10-01T03:15:41.478Z,96305.66
2022-10-01T03:18:10.569Z,96292.56
2022-10-01T03:20:38.267Z,96291.44
2022-10-01T03:23:05.931Z,96297.91
2022-10-01T03:25:33.616Z,96300.84
2022-10-01T03:28:01.427Z,96301.44
2022-10-01T03:30:30.287Z,96296.50
2022-10-01T03:32:57.967Z,96300.78
2022-10-01T03:35:26.973Z,96294.56
2022-10-01T03:37:54.707Z,96301.50
2022-10-01T03:40:22.394Z,96312.84
2022-10-01T03:42:51.055Z,96306.47
2022-10-01T03:45:18.772Z,96310.22
2022-10-01T03:47:52.750Z,96322.34
2022-10-01T03:50:21.922Z,96315.97
2022-10-01T03:52:51.287Z,96314.13
2022-10-01T03:55:19.258Z,96321.28
2022-10-01T03:57:47.237Z,96323.38
2022-10-01T04:00:14.959Z,96322.13
2022-10-01T04:02:42.769Z,96318.41
2022-10-01T04:05:10.660Z,96320.56
2022-10-01T04:07:38.372Z,96327.97
2022-10-01T04:10:08.908Z,96320.69
2022-10-01T04:12:36.602Z,96318.50
2022-10-01T04:15:04.552Z,96316.41
2022-10-01T04:17:32.258Z,96311.44
2022-10-01T04:20:00.264Z,96324.13
2022-10-01T04:22:27.963Z,96322.88
2022-10-01T04:24:55.634Z,96331.84
2022-10-01T04:27:25.935Z,96329.78
2022-10-01T04:29:53.648Z,96327.25
2022-10-01T04:32:21.527Z,96330.44
2022-10-01T04:34:55.185Z,96326.31
2022-10-01T04:37:23.777Z,96332.00
2022-10-01T04:39:51.488Z,96327.66
2022-10-01T04:42:19.211Z,96332.72
2022-10-01T04:44:48.525Z,96338.94
2022-10-01T04:47:16.247Z,96333.41
2022-10-01T04:49:43.861Z,96334.81
2022-10-01T04:52:11.582Z,96340.13
2022-10-01T04:54:39.251Z,96339.25
2022-10-01T04:57:07.014Z,96348.66
2022-10-01T04:59:34.770Z,96343.69
2022-10-01T05:02:03.951Z,96351.09
2022-10-01T05:04:31.725Z,96361.53
2022-10-01T05:06:59.462Z,96344.00
2022-10-01T05:09:27.140Z,96366.41
2022-10-01T05:11:54.826Z,96371.88
2022-10-01T05:14:22.545Z,96366.34
2022-10-01T05:16:50.287Z,96380.41
2022-10-01T05:19:19.286Z,96370.69
2022-10-01T05:21:46.980Z,96373.50
2022-10-01T05:24:16.190Z,96371.22
2022-10-01T05:26:43.900Z,96355.91
2022-10-01T05:29:11.626Z,96362.38
2022-10-01T05:31:44.374Z,96340.75
2022-10-01T05:34:12.451Z,96341.47
2022-10-01T05:36:41.874Z,96343.44
2022-10-01T05:39:09.717Z,96347.16
2022-10-01T05:41:37.813Z,96349.81
2022-10-01T05:44:06.063Z,96343.00
2022-10-01T05:46:33.899Z,96349.25
2022-10-01T05:49:01.719Z,96351.59
2022-10-01T05:51:30.184Z,96349.53
2022-10-01T05:54:01.180Z,96355.91
2022-10-01T05:56:28.918Z,96349.75
2022-10-01T05:58:56.742Z,96344.91
2022-10-01T06:01:24.460Z,96345.34
2022-10-01T06:03:52.192Z,96328.88
2022-10-01T06:06:23.536Z,96346.38
2022-10-01T06:08:51.239Z,96350.94
2022-10-01T06:11:22.531Z,96344.94
2022-10-01T06:13:50.936Z,96348.09
2022-10-01T06:16:18.669Z,96357.16
2022-10-01T06:18:48.127Z,96347.66
2022-10-01T06:21:15.858Z,96351.72
2022-10-01T06:23:44.320Z,96338.59
2022-10-01T06:26:12.109Z,96348.13
2022-10-01T06:28:41.159Z,96351.06
2022-10-01T06:31:08.843Z,96339.91
2022-10-01T06:33:36.898Z,96337.94
2022-10-01T06:36:05.507Z,96332.94
2022-10-01T06:38:33.176Z,96331.44
2022-10-01T06:41:03.786Z,96338.91
2022-10-01T06:43:32.867Z,96326.34
2022-10-01T06:46:04.015Z,96330.06
2022-10-01T06:48:32.442Z,96324.94
2022-10-01T06:51:00.409Z,96325.03
2022-10-01T06:53:29.180Z,96323.75
2022-10-01T06:55:56.935Z,96325.47
2022-10-01T06:58:26.561Z,96309.81
2022-10-01T07:01:00.232Z,96317.22
2022-10-01T07:03:31.001Z,96317.78
2022-10-01T07:06:03.582Z,96307.28
2022-10-01T07:08:31.349Z,96328.91
2022-10-01T07:11:03.588Z,96335.41
2022-10-01T07:13:31.816Z,96314.75
2022-10-01T07:15:59.583Z,96327.19
2022-10-01T07:18:27.302Z,96336.25
2022-10-01T07:20:57.752Z,96321.97
2022-10-01T07:23:25.509Z,96327.28
2022-10-01T07:25:53.260Z,96324.41
2022-10-01T07:28:25.608Z,96328.88
2022-10-01T07:30:59.924Z,96326.75
2022-10-01T07:33:28.140Z,96328.75
2022-10-01T07:35:57.194Z,96325.50
2022-10-01T07:38:24.850Z,96318.19
2022-10-01T07:40:54.581Z,96311.47
2022-10-01T07:43:22.436Z,96315.53
2022-10-01T07:45:52.448Z,96323.88
2022-10-01T07:48:20.307Z,96327.59
2022-10-01T07:50:48.094Z,96314.16
2022-10-01T07:53:17.648Z,96320.56
2022-10-01T07:55:45.769Z,96314.66
2022-10-01T07:58:14.038Z,96323.34
2022-10-01T08:00:43.334Z,96324.06
2022-10-01T08:03:12.667Z,96317.09
2022-10-01T08:05:43.234Z,96321.25
2022-10-01T08:08:10.975Z,96322.97
2022-10-01T08:10:41.418Z,96328.34
2022-10-01T08:13:14.452Z,96323.31
2022-10-01T08:15:42.550Z,96324.50
2022-10-01T08:18:11.260Z,96325.94
2022-10-01T08:20:40.255Z,96335.63
2022-10-01T08:23:10.296Z,96333.06
2022-10-01T08:25:41.649Z,96335.00
2022-10-01T08:28:11.017Z,96325.31
2022-10-01T08:30:40.619Z,96329.75
2022-10-01T08:33:11.079Z,96325.94
2022-10-01T08:35:40.149Z,96323.31
2022-10-01T08:38:09.406Z,96324.28
2022-10-01T08:40:43.099Z,96319.53
2022-10-01T08:43:26.409Z,96310.69
2022-10-01T08:45:59.836Z,96307.69
2022-10-01T08:48:36.316Z,96319.03
2022-10-01T08:51:09.141Z,96324.28
2022-10-01T08:53:41.056Z,96313.22
2022-10-01T08:56:16.084Z,96318.16
2022-10-01T08:58:49.682Z,96323.09
2022-10-01T09:01:17.407Z,96314.19
2022-10-01T09:03:45.114Z,96316.94
2022-10-01T09:06:20.894Z,96325.38
2022-10-01T09:09:09.472Z,96330.41
2022-10-01T09:11:51.156Z,96325.59
2022-10-01T09:14:37.687Z,96336.50
2022-10-01T09:17:13.730Z,96326.50
2022-10-01T09:19:54.389Z,96326.16
2022-10-01T09:22:31.676Z,96317.41
2022-10-01T09:25:06.987Z,96332.78
2022-10-01T09:27:35.231Z,96330.34
2022-10-01T09:30:08.241Z,96333.84
2022-10-01T09:32:40.239Z,96328.06
2022-10-01T09:35:21.824Z,96332.28
2022-10-01T09:37:57.258Z,96321.38
2022-10-01T09:40:33.983Z,96331.44
2022-10-01T09:43:02.135Z,96322.41
2022-10-01T09:45:31.251Z,96322.13
2022-10-01T09:48:05.900Z,96326.50
2022-10-01T09:50:41.130Z,96318.47
2022-10-01T09:53:17.575Z,96315.38
2022-10-01T09:55:48.870Z,96332.41
2022-10-01T09:58:19.687Z,96342.16
2022-10-01T10:00:51.494Z,96334.22
2022-10-01T10:03:28.625Z,96329.97
2022-10-01T10:05:57.143Z,96344.78
2022-10-01T10:08:29.848Z,96349.22
2022-10-01T10:11:00.601Z,96354.56
2022-10-01T10:13:35.238Z,96359.78
2022-10-01T10:16:16.662Z,96357.34
2022-10-01T10:18:52.294Z,96360.59
2022-10-01T10:21:25.366Z,96364.97
2022-10-01T10:23:55.075Z,96353.63
2022-10-01T10:26:28.411Z,96347.22
2022-10-01T10:28:57.338Z,96351.66
2022-10-01T10:31:29.008Z,96352.97
2022-10-01T10:34:06.398Z,96350.69
2022-10-01T10:36:37.128Z,96361.56
2022-10-01T10:39:07.031Z,96364.19
2022-10-01T10:41:35.723Z,96362.06
2022-10-01T10:44:07.518Z,96367.59
2022-10-01T10:46:43.973Z,96377.19
2022-10-01T10:49:22.091Z,96379.28
2022-10-01T10:51:53.860Z,96386.53
2022-10-01T10:54:29.369Z,96382.94
2022-10-01T10:57:02.323Z,96373.28
2022-10-01T10:59:32.761Z,96370.59
2022-10-01T11:02:05.708Z,96370.69
2022-10-01T11:04:41.076Z,96375.56
2022-10-01T11:07:10.774Z,96373.28
2022-10-01T11:09:54.523Z,96363.53
2022-10-01T11:12:38.397Z,96370.69
2022-10-01T11:15:27.374Z,96371.97
2022-10-01T11:18:14.577Z,96373.34
2022-10-01T11:20:50.557Z,96377.41
2022-10-01T11:23:42.351Z,96380.16
2022-10-01T11:26:20.594Z,96391.47
2022-10-01T11:29:00.345Z,96382.69
2022-10-01T11:31:36.314Z,96375.22
2022-10-01T11:34:22.827Z,96377.91
2022-10-01T11:36:59.357Z,96362.06
2022-10-01T11:39:30.892Z,96366.59
2022-10-01T11:42:03.535Z,96368.56
2022-10-01T11:44:36.356Z,96382.34
2022-10-01T11:47:08.527Z,96369.53
2022-10-01T11:49:48.672Z,96391.53
2022-10-01T11:52:24.599Z,96377.66
2022-10-01T11:55:20.220Z,96388.69
2022-10-01T11:58:07.391Z,96379.28
2022-10-01T12:00:37.771Z,96388.84
2022-10-01T12:03:14.114Z,96403.63
2022-10-01T12:05:44.250Z,96412.72
2022-10-01T12:08:19.200Z,96406.06
2022-10-01T12:10:54.992Z,96400.72
2022-10-01T12:13:29.624Z,96403.31
2022-10-01T12:16:02.182Z,96413.84
2022-10-01T12:18:34.588Z,96411.34
2022-10-01T12:21:08.957Z,96427.53
2022-10-01T12:23:44.938Z,96407.38
2022-10-01T12:26:25.717Z,96400.22
2022-10-01T12:29:00.463Z,96398.28
2022-10-01T12:31:36.646Z,96397.47
2022-10-01T12:34:14.306Z,96396.81
2022-10-01T12:36:54.286Z,96401.34
2022-10-01T12:39:37.464Z,96399.34
2022-10-01T12:42:25.856Z,96406.81
2022-10-01T12:45:04.001Z,96411.50
2022-10-01T12:47:43.731Z,96417.91
2022-10-01T12:50:35.688Z,96405.53
2022-10-01T12:53:33.873Z,96425.06
2022-10-01T12:56:07.903Z,96424.59
2022-10-01T12:59:06.428Z,96406.56
2022-10-01T13:01:46.701Z,96415.03
2022-10-01T13:04:31.977Z,96407.09
2022-10-01T13:07:17.607Z,96421.88
2022-10-01T13:09:53.749Z,96420.59
2022-10-01T13:12:44.330Z,96431.28
2022-10-01T13:15:22.382Z,96442.94
2022-10-01T13:17:56.384Z,96437.13
2022-10-01T13:20:32.636Z,96445.63
2022-10-01T13:23:05.911Z,96433.16
2022-10-01T13:25:43.928Z,96437.53
2022-10-01T13:28:19.540Z,96429.81
2022-10-01T13:30:58.975Z,96451.03
2022-10-01T13:33:29.368Z,96440.44
2022-10-01T13:35:59.401Z,96456.66
2022-10-01T13:38:40.545Z,96453.59
2022-10-01T13:41:20.081Z,96462.34
2022-10-01T13:43:56.816Z,96459.22
2022-10-01T13:46:27.699Z,96457.47
2022-10-01T13:48:57.185Z,96459.94
2022-10-01T13:51:36.031Z,96470.41
2022-10-01T13:54:07.860Z,96474.13
2022-10-01T13:56:38.384Z,96479.13
2022-10-01T13:59:27.596Z,96475.44
2022-10-01T14:01:55.501Z,96480.28
2022-10-01T14:04:29.182Z,96455.66
2022-10-01T14:07:00.904Z,96452.25
2022-10-01T14:09:32.562Z,96452.03
2022-10-01T14:12:19.964Z,96464.34
2022-10-01T14:15:11.399Z,96467.72
2022-10-01T14:17:39.728Z,96476.22
2022-10-01T14:20:09.787Z,96482.41
2022-10-01T14:22:51.779Z,96481.25
2022-10-01T14:25:41.742Z,96468.53
2022-10-01T14:28:25.551Z,96473.31
2022-10-01T14:30:59.638Z,96470.75
2022-10-01T14:33:58.680Z,96468.38
2022-10-01T14:36:32.726Z,96471.72
2022-10-01T14:39:15.364Z,96462.53
2022-10-01T14:41:43.701Z,96472.66
2022-10-01T14:44:28.421Z,96470.75
2022-10-01T14:46:58.306Z,96476.84
2022-10-01T14:49:27.892Z,96469.78
2022-10-01T14:52:01.086Z,96475.84
2022-10-01T14:54:31.015Z,96489.09
2022-10-01T14:56:58.786Z,96490.94
2022-10-01T14:59:35.599Z,96495.97
2022-10-01T15:02:17.478Z,96502.94
2022-10-01T15:04:47.327Z,96508.94
2022-10-01T15:07:17.135Z,96507.31
2022-10-01T15:09:45.638Z,96493.34
2022-10-01T15:12:14.642Z,96504.72
2022-10-01T15:14:44.599Z,96496.81
2022-10-01T15:17:19.314Z,96506.47
2022-10-01T15:19:52.111Z,96506.34
2022-10-01T15:22:25.272Z,96510.19
2022-10-01T15:24:57.000Z,96516.72
2022-10-01T15:27:26.003Z,96510.56
2022-10-01T15:29:58.718Z,96501.38
2022-10-01T15:32:28.351Z,96501.63
2022-10-01T15:34:58.376Z,96496.59
2022-10-01T15:37:31.283Z,96501.94
2022-10-01T15:40:00.804Z,96497.75
2022-10-01T15:42:31.968Z,96484.97
2022-10-01T15:45:23.327Z,96495.31
2022-10-01T15:47:52.235Z,96500.66
2022-10-01T15:50:22.147Z,96482.16
2022-10-01T15:52:55.683Z,96491.56
2022-10-01T15:55:29.689Z,96481.09
2022-10-01T15:58:04.807Z,96493.28
2022-10-01T16:00:56.056Z,96486.41
2022-10-01T16:03:27.357Z,96493.63
2022-10-01T16:05:56.316Z,96497.13
2022-10-01T16:08:32.847Z,96501.09
2022-10-01T16:11:18.308Z,96507.84
2022-10-01T16:13:48.760Z,96515.41
2022-10-01T16:16:28.816Z,96506.66
2022-10-01T16:19:00.848Z,96512.25
2022-10-01T16:21:29.300Z,96514.69
2022-10-01T16:23:57.720Z,96521.34
2022-10-01T16:26:40.061Z,96509.00
2022-10-01T16:29:19.734Z,96515.31
2022-10-01T16:31:48.973Z,96521.78
2022-10-01T16:34:19.519Z,96533.66
2022-10-01T16:36:47.689Z,96543.94
2022-10-01T16:39:15.588Z,96551.38
2022-10-01T16:41:44.947Z,96548.59
2022-10-01T16:44:14.951Z,96549.28
2022-10-01T16:46:43.001Z,96548.59
2022-10-01T16:49:15.198Z,96552.91
2022-10-01T16:51:43.279Z,96556.16
2022-10-01T16:54:22.313Z,96559.31
2022-10-01T16:56:51.666Z,96562.78
2022-10-01T16:59:21.232Z,96562.28
2022-10-01T17:01:51.114Z,96570.00
2022-10-01T17:04:20.314Z,96557.44
2022-10-01T17:06:48.164Z,96576.19
2022-10-01T17:09:15.830Z,96564.88
2022-10-01T17:11:43.548Z,96566.25
2022-10-01T17:14:16.706Z,96575.91
2022-10-01T17:16:45.379Z,96580.47
2022-10-01T17:19:14.648Z,96571.84
2022-10-01T17:21:43.683Z,96572.53
2022-10-01T17:24:11.768Z,96567.66
2022-10-01T17:26:41.504Z,96584.88
2022-10-01T17:29:10.107Z,96579.75
2022-10-01T17:31:40.555Z,96565.09
2022-10-01T17:34:08.742Z,96585.56
2022-10-01T17:36:36.652Z,96592.44
2022-10-01T17:39:05.968Z,96579.53
2022-10-01T17:41:33.665Z,96583.59
2022-10-01T17:44:01.652Z,96594.19
2022-10-01T17:46:30.810Z,96602.78
2022-10-01T17:48:58.537Z,96614.34
2022-10-01T17:51:26.686Z,96620.81
2022-10-01T17:53:55.447Z,96620.50
2022-10-01T17:56:24.520Z,96629.03
2022-10-01T17:58:54.043Z,96634.34
2022-10-01T18:01:22.974Z,96643.66
2022-10-01T18:03:55.158Z,96636.31
2022-10-01T18:06:22.699Z,96637.44
2022-10-01T18:08:55.464Z,96653.72
2022-10-01T18:11:26.317Z,96661.88
2022-10-01T18:13:54.199Z,96660.25
2022-10-01T18:16:22.835Z,96660.59
2022-10-01T18:21:43.413Z,96658.72
2022-10-01T18:24:11.230Z,96657.69
2022-10-01T18:26:40.327Z,96664.09
2022-10-01T18:29:08.068Z,96666.50
2022-10-01T18:31:37.275Z,96664.19
2022-10-01T18:34:16.242Z,96677.00
2022-10-01T18:36:54.495Z,96679.56
2022-10-01T18:39:28.716Z,96687.09
2022-10-01T18:41:58.397Z,96689.22
2022-10-01T18:44:27.011Z,96691.13
2022-10-01T18:47:10.043Z,96701.44
2022-10-01T18:50:17.793Z,96705.38
2022-10-01T18:52:59.687Z,96711.31
2022-10-01T18:55:40.477Z,96719.94
2022-10-01T18:58:33.228Z,96733.84
2022-10-01T19:01:11.145Z,96728.34
2022-10-01T19:04:26.775Z,96725.88
2022-10-01T19:07:09.522Z,96725.41
2022-10-01T19:09:52.521Z,96731.69
2022-10-01T19:12:37.500Z,96734.84
2022-10-01T19:15:17.755Z,96736.72
2022-10-01T19:18:22.051Z,96734.59
2022-10-01T19:21:03.408Z,96736.22
2022-10-01T19:23:42.209Z,96741.34
2022-10-01T19:26:17.849Z,96739.50
2022-10-01T19:28:59.663Z,96740.53
2022-10-01T19:31:37.015Z,96742.50
2022-10-01T19:34:10.871Z,96750.09
2022-10-01T19:36:42.483Z,96747.69
2022-10-01T19:39:15.828Z,96766.47
2022-10-01T19:41:48.598Z,96732.88
2022-10-01T19:44:21.152Z,96758.47
2022-10-01T19:46:51.216Z,96759.53
2022-10-01T19:49:27.494Z,96769.22
2022-10-01T19:51:58.665Z,96769.22
2022-10-01T19:54:34.581Z,96784.63
2022-10-01T19:57:13.306Z,96793.47
2022-10-01T19:59:41.960Z,96808.66
2022-10-01T20:02:16.809Z,96813.09
2022-10-01T20:04:51.813Z,96813.06
2022-10-01T20:07:27.779Z,96815.16
2022-10-01T20:10:05.503Z,96816.78
2022-10-01T20:12:40.265Z,96822.00
2022-10-01T20:15:21.235Z,96828.22
2022-10-01T20:18:04.750Z,96805.47
2022-10-01T20:20:41.144Z,96831.47
2022-10-01T20:23:21.991Z,96829.84
2022-10-01T20:25:55.943Z,96840.56
2022-10-01T20:28:28.519Z,96841.03
2022-10-01T20:31:06.972Z,96846.91
2022-10-01T20:33:44.207Z,96850.16
2022-10-01T20:36:18.007Z,96854.22
2022-10-01T20:38:49.746Z,96844.97
2022-10-01T20:41:19.953Z,96844.88
2022-10-01T20:43:52.212Z,96851.66
2022-10-01T20:46:34.611Z,96858.97
2022-10-01T20:49:11.285Z,96863.88
2022-10-01T20:51:46.139Z,96861.75
2022-10-01T20:54:19.218Z,96848.81
2022-10-01T20:56:52.835Z,96850.25
2022-10-01T20:59:27.427Z,96862.59
2022-10-01T21:02:02.319Z,96860.44
2022-10-01T21:04:35.512Z,96861.09
2022-10-01T21:07:21.097Z,96863.88
2022-10-01T21:09:53.746Z,96863.06
2022-10-01T21:12:25.179Z,96861.16
2022-10-01T21:14:55.117Z,96876.91
2022-10-01T21:17:35.160Z,96879.78
2022-10-01T21:20:21.258Z,96878.41
2022-10-01T21:23:08.929Z,96878.56
2022-10-01T21:25:47.870Z,96892.22
2022-10-01T21:28:33.248Z,96906.72
2022-10-01T21:31:13.772Z,96913.50
2022-10-01T21:33:47.745Z,96922.69
2022-10-01T21:36:23.078Z,96895.16
2022-10-01T21:38:56.866Z,96908.22
2022-10-01T21:41:38.405Z,96911.69
2022-10-01T21:44:18.028Z,96912.63
2022-10-01T21:46:53.245Z,96912.31
2022-10-01T21:49:34.891Z,96918.19
2022-10-01T21:52:14.336Z,96917.59
2022-10-01T21:55:07.086Z,96924.03
2022-10-01T21:57:56.282Z,96915.97
2022-10-01T22:00:28.689Z,96927.69
2022-10-01T22:03:12.299Z,96928.16
2022-10-01T22:05:50.295Z,96932.00
2022-10-01T22:08:30.038Z,96938.66
2022-10-01T22:11:01.669Z,96940.78
2022-10-01T22:13:33.926Z,96946.16
2022-10-01T22:16:08.039Z,96946.63
2022-10-01T22:18:42.095Z,96950.72
2022-10-01T22:21:14.601Z,96963.69
2022-10-01T22:23:49.730Z,96958.19
2022-10-01T22:26:21.575Z,96955.84
2022-10-01T22:28:54.184Z,96961.44
2022-10-01T22:31:33.506Z,96966.81
2022-10-01T22:34:06.774Z,96972.59
2022-10-01T22:36:45.335Z,96965.31
2022-10-01T22:39:19.386Z,96961.25
2022-10-01T22:41:51.959Z,96963.81
2022-10-01T22:44:21.751Z,96958.94
2022-10-01T22:47:12.134Z,96953.56
2022-10-01T22:49:51.486Z,96942.63
2022-10-01T22:52:29.139Z,96957.06
2022-10-01T22:55:08.527Z,96951.94
2022-10-01T22:57:50.575Z,96956.81
2022-10-01T23:00:21.196Z,96964.66
2022-10-01T23:02:59.471Z,96952.06
2022-10-01T23:05:41.868Z,96969.91
2022-10-01T23:08:19.401Z,96974.44
2022-10-01T23:11:00.271Z,96972.00
2022-10-01T23:13:38.025Z,96975.28
2022-10-01T23:16:13.756Z,96967.44
2022-10-01T23:18:51.830Z,96966.16
2022-10-01T23:21:32.568Z,96975.38
2022-10-01T23:24:09.781Z,96970.69
2022-10-01T23:26:47.501Z,96981.66
2022-10-01T23:29:36.726Z,96984.84
2022-10-01T23:32:14.787Z,96988.69
2022-10-01T23:34:52.105Z,96993.47
2022-10-01T23:37:44.946Z,96999.34
2022-10-01T23:40:16.197Z,96999.91
2022-10-01T23:42:56.255Z,96999.91
2022-10-01T23:45:29.465Z,96996.88
2022-10-01T23:48:05.376Z,97000.63
2022-10-01T23:50:38.773Z,97004.56
2022-10-01T23:53:14.316Z,97001.53
2022-10-01T23:56:06.147Z,97005.50
2022-10-01T23:58:42.986Z,97002.13
